Aktualna pogoda na lotniskach (dane METAR)

 

EPGD - Gdansk/Rebiechow, Poland
Distance from station: ENE 44km
Updated: Wed, 13-Dec-2017 02:30 CET
Mostly Cloudy
Mostly Cloudy
 Wind from WSW
Wiatr: WSW 24 km/h
Temperatura: 1°C
Indeks Wychł.: -4°C
Punkt Rosy: -1°C
Wilgotność: 87%
Ciśnienie: 1007 hPa
Zachmurzenie: Mostly Cloudy
Widzialność: 10 km
Szczegóły zachm.: Few Clouds 122 m
Mostly Cloudy 396 m
2017/12/13 01:30 EPGD 130130Z 25013KT 9999 FEW004 BKN013 01/M01 Q1007
EPSC - Szczecin/Golenio, Poland
Distance from station: WSW 205km
Updated: Wed, 13-Dec-2017 02:30 CET
Overcast
Overcast
 Wind from SW
Wiatr: SW 15 km/h
Temperatura: 1°C
Indeks Wychł.: -3°C
Punkt Rosy: 0°C
Wilgotność: 93%
Ciśnienie: 1011 hPa
Zachmurzenie: Overcast
Widzialność: 10 km
Szczegóły zachm.: Partly Cloudy 213 m
Overcast 274 m
2017/12/13 01:30 EPSC 130130Z 23008KT 180V260 9999 SCT007 OVC009 01/M00 Q1011
 
EPPO - Poznan/Lawica, Poland
Distance from station: SSW 210km
Updated: Wed, 13-Dec-2017 02:30 CET
Mostly Cloudy
Mostly Cloudy
 Wind from W
Wiatr: W 15 km/h
Temperatura: 1°C
Indeks Wychł.: -3°C
Punkt Rosy: -2°C
Wilgotność: 81%
Ciśnienie: 1014 hPa
Zachmurzenie: Mostly Cloudy
Widzialność: 10 km
Szczegóły zachm.: Mostly Cloudy 701 m
2017/12/13 01:30 EPPO 130130Z 26008KT 9999 BKN023 01/M02 Q1014 R10/290095
EPLL - Lodz/Lublinek, Poland
Distance from station: SSE 296km
Updated: Wed, 13-Dec-2017 02:30 CET
Mostly Cloudy
Mostly Cloudy
 Wind from WSW
Wiatr: WSW 37 km/h
Temperatura: 3°C
Indeks Wychł.: -3°C
Punkt Rosy: -3°C
Wilgotność: 65%
Ciśnienie: 1013 hPa
Zachmurzenie: Mostly Cloudy
Widzialność: 10 km
Szczegóły zachm.: Few Clouds 945 m
Mostly Cloudy 1341 m
2017/12/13 01:30 EPLL 130130Z 25020KT 9999 FEW031 BKN044 03/M03 Q1013
 
EPWA - Warsaw/Okecie, Poland
Distance from station: SE 307km
Updated: Wed, 13-Dec-2017 02:30 CET
Clear
Clear
 Wind from WSW
Wiatr: WSW 19 km/h, Gust: 37 km/h
Temperatura: 4°C
Indeks Wychł.: 0°C
Punkt Rosy: -3°C
Wilgotność: 61%
Ciśnienie: 1012 hPa
Ogólnie: Clear
Widzialność: greater than 10 km
2017/12/13 01:30 EPWA 130130Z 25010G20KT 230V290 CAVOK 04/M03 Q1012 NOSIG
EPWR - Wroclaw/Strachow, Poland
Distance from station: S 352km
Updated: Wed, 13-Dec-2017 02:30 CET
Mostly Cloudy
Mostly Cloudy
 Wind from WSW
Wiatr: WSW 9 km/h
Temperatura: 2°C
Indeks Wychł.: -1°C
Punkt Rosy: -2°C
Wilgotność: 75%
Ciśnienie: 1016 hPa
Zachmurzenie: Mostly Cloudy
Widzialność: 10 km
Szczegóły zachm.: Partly Cloudy 914 m
Mostly Cloudy 1036 m
2017/12/13 01:30 EPWR 130130Z 24005KT 9999 SCT030 BKN034 02/M02 Q1016

Metar display script from Saratoga-Weather.org